sensor_id;sensor_type;location;lat;lon;timestamp;P1;durP1;ratioP1;P2;durP2;ratioP2
20369;SDS011;10344;47.592;9.600;2023-04-24T00:02:15;1.07;;;0.90;;
20369;SDS011;10344;47.592;9.600;2023-04-24T00:04:43;0.77;;;0.70;;
20369;SDS011;10344;47.592;9.600;2023-04-24T00:07:13;1.13;;;0.70;;
20369;SDS011;10344;47.592;9.600;2023-04-24T00:09:43;0.80;;;0.80;;
20369;SDS011;10344;47.592;9.600;2023-04-24T00:12:09;0.80;;;0.60;;
20369;SDS011;10344;47.592;9.600;2023-04-24T00:14:37;1.52;;;0.80;;
20369;SDS011;10344;47.592;9.600;2023-04-24T00:17:08;0.70;;;0.60;;
20369;SDS011;10344;47.592;9.600;2023-04-24T00:19:36;0.77;;;0.77;;
20369;SDS011;10344;47.592;9.600;2023-04-24T00:22:03;0.90;;;0.63;;
20369;SDS011;10344;47.592;9.600;2023-04-24T00:24:38;0.90;;;0.70;;
20369;SDS011;10344;47.592;9.600;2023-04-24T00:27:04;0.90;;;0.70;;
20369;SDS011;10344;47.592;9.600;2023-04-24T00:29:29;0.60;;;0.60;;
20369;SDS011;10344;47.592;9.600;2023-04-24T00:31:57;0.80;;;0.80;;
20369;SDS011;10344;47.592;9.600;2023-04-24T00:34:23;0.70;;;0.70;;
20369;SDS011;10344;47.592;9.600;2023-04-24T00:36:57;0.75;;;0.70;;
20369;SDS011;10344;47.592;9.600;2023-04-24T00:39:23;0.80;;;0.63;;
20369;SDS011;10344;47.592;9.600;2023-04-24T00:41:51;0.50;;;0.50;;
20369;SDS011;10344;47.592;9.600;2023-04-24T00:44:17;0.60;;;0.60;;
20369;SDS011;10344;47.592;9.600;2023-04-24T00:46:45;1.05;;;0.60;;
20369;SDS011;10344;47.592;9.600;2023-04-24T00:49:17;1.02;;;0.77;;
20369;SDS011;10344;47.592;9.600;2023-04-24T00:51:48;1.52;;;0.60;;
20369;SDS011;10344;47.592;9.600;2023-04-24T00:54:14;0.60;;;0.60;;
20369;SDS011;10344;47.592;9.600;2023-04-24T00:56:40;1.48;;;0.88;;
20369;SDS011;10344;47.592;9.600;2023-04-24T00:59:09;0.70;;;0.70;;
20369;SDS011;10344;47.592;9.600;2023-04-24T01:01:38;0.93;;;0.60;;
20369;SDS011;10344;47.592;9.600;2023-04-24T01:04:07;0.80;;;0.80;;
20369;SDS011;10344;47.592;9.600;2023-04-24T01:06:32;0.77;;;0.75;;
20369;SDS011;10344;47.592;9.600;2023-04-24T01:08:59;0.80;;;0.80;;
20369;SDS011;10344;47.592;9.600;2023-04-24T01:11:25;0.77;;;0.77;;
20369;SDS011;10344;47.592;9.600;2023-04-24T01:13:51;1.10;;;0.80;;
20369;SDS011;10344;47.592;9.600;2023-04-24T01:16:18;0.77;;;0.77;;
20369;SDS011;10344;47.592;9.600;2023-04-24T01:18:45;1.10;;;0.70;;
20369;SDS011;10344;47.592;9.600;2023-04-24T01:21:14;0.70;;;0.70;;
20369;SDS011;10344;47.592;9.600;2023-04-24T01:23:42;1.10;;;0.85;;
20369;SDS011;10344;47.592;9.600;2023-04-24T01:26:08;0.73;;;0.73;;
20369;SDS011;10344;47.592;9.600;2023-04-24T01:28:34;0.90;;;0.80;;
20369;SDS011;10344;47.592;9.600;2023-04-24T01:31:00;0.75;;;0.75;;
20369;SDS011;10344;47.592;9.600;2023-04-24T01:33:26;0.80;;;0.80;;
20369;SDS011;10344;47.592;9.600;2023-04-24T01:35:54;0.88;;;0.88;;
20369;SDS011;10344;47.592;9.600;2023-04-24T01:38:24;0.80;;;0.70;;
20369;SDS011;10344;47.592;9.600;2023-04-24T01:40:53;1.63;;;0.80;;
20369;SDS011;10344;47.592;9.600;2023-04-24T01:43:21;1.50;;;0.90;;
20369;SDS011;10344;47.592;9.600;2023-04-24T01:45:47;0.80;;;0.80;;
20369;SDS011;10344;47.592;9.600;2023-04-24T01:48:12;1.10;;;0.80;;
20369;SDS011;10344;47.592;9.600;2023-04-24T01:50:39;0.90;;;0.90;;
20369;SDS011;10344;47.592;9.600;2023-04-24T01:53:07;0.60;;;0.60;;
20369;SDS011;10344;47.592;9.600;2023-04-24T01:55:33;0.60;;;0.60;;
20369;SDS011;10344;47.592;9.600;2023-04-24T01:57:58;0.75;;;0.75;;
20369;SDS011;10344;47.592;9.600;2023-04-24T02:00:27;1.33;;;0.60;;
20369;SDS011;10344;47.592;9.600;2023-04-24T02:02:53;0.70;;;0.70;;
20369;SDS011;10344;47.592;9.600;2023-04-24T02:05:18;0.82;;;0.77;;
20369;SDS011;10344;47.592;9.600;2023-04-24T02:07:47;0.50;;;0.50;;
20369;SDS011;10344;47.592;9.600;2023-04-24T02:10:12;1.13;;;0.93;;
20369;SDS011;10344;47.592;9.600;2023-04-24T02:12:40;0.60;;;0.60;;
20369;SDS011;10344;47.592;9.600;2023-04-24T02:15:06;0.68;;;0.68;;
20369;SDS011;10344;47.592;9.600;2023-04-24T02:17:34;0.70;;;0.70;;
20369;SDS011;10344;47.592;9.600;2023-04-24T02:20:00;0.60;;;0.60;;
20369;SDS011;10344;47.592;9.600;2023-04-24T02:22:25;0.80;;;0.77;;
20369;SDS011;10344;47.592;9.600;2023-04-24T02:24:53;0.70;;;0.70;;
20369;SDS011;10344;47.592;9.600;2023-04-24T02:27:19;1.02;;;0.57;;
20369;SDS011;10344;47.592;9.600;2023-04-24T02:29:47;0.60;;;0.60;;
20369;SDS011;10344;47.592;9.600;2023-04-24T02:32:12;0.80;;;0.57;;
20369;SDS011;10344;47.592;9.600;2023-04-24T02:34:40;1.00;;;0.75;;
20369;SDS011;10344;47.592;9.600;2023-04-24T02:37:08;0.60;;;0.60;;
20369;SDS011;10344;47.592;9.600;2023-04-24T02:39:36;0.40;;;0.40;;
20369;SDS011;10344;47.592;9.600;2023-04-24T02:42:01;0.82;;;0.70;;
20369;SDS011;10344;47.592;9.600;2023-04-24T02:44:30;0.60;;;0.60;;
20369;SDS011;10344;47.592;9.600;2023-04-24T02:46:55;0.52;;;0.52;;
20369;SDS011;10344;47.592;9.600;2023-04-24T02:49:21;0.77;;;0.70;;
20369;SDS011;10344;47.592;9.600;2023-04-24T02:51:47;0.57;;;0.57;;
20369;SDS011;10344;47.592;9.600;2023-04-24T02:54:12;0.67;;;0.63;;
20369;SDS011;10344;47.592;9.600;2023-04-24T02:56:38;0.70;;;0.70;;
20369;SDS011;10344;47.592;9.600;2023-04-24T02:59:08;0.80;;;0.80;;
20369;SDS011;10344;47.592;9.600;2023-04-24T03:01:35;0.80;;;0.80;;
20369;SDS011;10344;47.592;9.600;2023-04-24T03:04:03;0.77;;;0.77;;
20369;SDS011;10344;47.592;9.600;2023-04-24T03:06:28;0.80;;;0.70;;
20369;SDS011;10344;47.592;9.600;2023-04-24T03:08:56;0.70;;;0.63;;
20369;SDS011;10344;47.592;9.600;2023-04-24T03:11:24;0.50;;;0.50;;
20369;SDS011;10344;47.592;9.600;2023-04-24T03:13:50;0.90;;;0.50;;
20369;SDS011;10344;47.592;9.600;2023-04-24T03:16:15;0.53;;;0.53;;
20369;SDS011;10344;47.592;9.600;2023-04-24T03:18:41;0.43;;;0.43;;
20369;SDS011;10344;47.592;9.600;2023-04-24T03:21:06;0.70;;;0.60;;
20369;SDS011;10344;47.592;9.600;2023-04-24T03:23:34;0.57;;;0.57;;
20369;SDS011;10344;47.592;9.600;2023-04-24T03:26:00;0.50;;;0.50;;
20369;SDS011;10344;47.592;9.600;2023-04-24T03:28:27;0.45;;;0.45;;
20369;SDS011;10344;47.592;9.600;2023-04-24T03:30:55;0.90;;;0.60;;
20369;SDS011;10344;47.592;9.600;2023-04-24T03:33:23;0.50;;;0.50;;
20369;SDS011;10344;47.592;9.600;2023-04-24T03:35:48;0.60;;;0.60;;
20369;SDS011;10344;47.592;9.600;2023-04-24T03:38:14;0.55;;;0.55;;
20369;SDS011;10344;47.592;9.600;2023-04-24T03:40:40;0.55;;;0.50;;
20369;SDS011;10344;47.592;9.600;2023-04-24T03:43:05;0.60;;;0.60;;
20369;SDS011;10344;47.592;9.600;2023-04-24T03:45:33;0.40;;;0.40;;
20369;SDS011;10344;47.592;9.600;2023-04-24T03:47:59;1.33;;;0.60;;
20369;SDS011;10344;47.592;9.600;2023-04-24T03:50:24;1.20;;;0.80;;
20369;SDS011;10344;47.592;9.600;2023-04-24T03:52:51;0.60;;;0.52;;
20369;SDS011;10344;47.592;9.600;2023-04-24T03:55:17;0.50;;;0.50;;
20369;SDS011;10344;47.592;9.600;2023-04-24T03:57:45;0.55;;;0.55;;
20369;SDS011;10344;47.592;9.600;2023-04-24T04:00:11;0.35;;;0.35;;
20369;SDS011;10344;47.592;9.600;2023-04-24T04:02:37;0.55;;;0.45;;
20369;SDS011;10344;47.592;9.600;2023-04-24T04:05:02;0.70;;;0.40;;
20369;SDS011;10344;47.592;9.600;2023-04-24T04:07:28;0.60;;;0.60;;
20369;SDS011;10344;47.592;9.600;2023-04-24T04:09:57;0.70;;;0.55;;
20369;SDS011;10344;47.592;9.600;2023-04-24T04:12:22;0.50;;;0.50;;
20369;SDS011;10344;47.592;9.600;2023-04-24T04:14:48;0.75;;;0.40;;
20369;SDS011;10344;47.592;9.600;2023-04-24T04:17:13;0.65;;;0.45;;
20369;SDS011;10344;47.592;9.600;2023-04-24T04:19:42;0.65;;;0.60;;
20369;SDS011;10344;47.592;9.600;2023-04-24T04:22:10;0.40;;;0.40;;
20369;SDS011;10344;47.592;9.600;2023-04-24T04:24:36;0.85;;;0.60;;
20369;SDS011;10344;47.592;9.600;2023-04-24T04:27:03;0.40;;;0.40;;
20369;SDS011;10344;47.592;9.600;2023-04-24T04:29:30;1.90;;;0.70;;
20369;SDS011;10344;47.592;9.600;2023-04-24T04:31:59;0.60;;;0.60;;
20369;SDS011;10344;47.592;9.600;2023-04-24T04:34:25;0.70;;;0.50;;
20369;SDS011;10344;47.592;9.600;2023-04-24T04:36:53;0.40;;;0.40;;
20369;SDS011;10344;47.592;9.600;2023-04-24T04:39:19;0.67;;;0.60;;
20369;SDS011;10344;47.592;9.600;2023-04-24T04:41:50;0.50;;;0.50;;
20369;SDS011;10344;47.592;9.600;2023-04-24T04:44:15;0.60;;;0.60;;
20369;SDS011;10344;47.592;9.600;2023-04-24T04:46:41;0.60;;;0.60;;
20369;SDS011;10344;47.592;9.600;2023-04-24T04:49:07;0.70;;;0.70;;
20369;SDS011;10344;47.592;9.600;2023-04-24T04:51:38;0.80;;;0.80;;
20369;SDS011;10344;47.592;9.600;2023-04-24T04:54:03;1.15;;;0.65;;
20369;SDS011;10344;47.592;9.600;2023-04-24T04:56:31;1.20;;;0.70;;
20369;SDS011;10344;47.592;9.600;2023-04-24T04:58:59;1.05;;;0.70;;
20369;SDS011;10344;47.592;9.600;2023-04-24T05:01:25;1.38;;;1.27;;
20369;SDS011;10344;47.592;9.600;2023-04-24T05:03:53;1.65;;;1.40;;
20369;SDS011;10344;47.592;9.600;2023-04-24T05:06:21;2.20;;;1.20;;
20369;SDS011;10344;47.592;9.600;2023-04-24T05:08:46;0.90;;;0.90;;
20369;SDS011;10344;47.592;9.600;2023-04-24T05:11:14;0.50;;;0.50;;
20369;SDS011;10344;47.592;9.600;2023-04-24T05:13:40;0.60;;;0.60;;
20369;SDS011;10344;47.592;9.600;2023-04-24T05:16:06;0.73;;;0.73;;
20369;SDS011;10344;47.592;9.600;2023-04-24T05:18:36;0.80;;;0.80;;
20369;SDS011;10344;47.592;9.600;2023-04-24T05:21:02;0.60;;;0.60;;
20369;SDS011;10344;47.592;9.600;2023-04-24T05:23:30;0.70;;;0.70;;
20369;SDS011;10344;47.592;9.600;2023-04-24T05:25:55;0.80;;;0.80;;
20369;SDS011;10344;47.592;9.600;2023-04-24T05:28:23;0.75;;;0.75;;
20369;SDS011;10344;47.592;9.600;2023-04-24T05:30:53;0.80;;;0.80;;
20369;SDS011;10344;47.592;9.600;2023-04-24T05:33:20;0.77;;;0.77;;
20369;SDS011;10344;47.592;9.600;2023-04-24T05:35:45;0.50;;;0.50;;
20369;SDS011;10344;47.592;9.600;2023-04-24T05:38:12;0.75;;;0.75;;
20369;SDS011;10344;47.592;9.600;2023-04-24T05:40:38;0.70;;;0.70;;
20369;SDS011;10344;47.592;9.600;2023-04-24T05:43:06;1.10;;;0.70;;
20369;SDS011;10344;47.592;9.600;2023-04-24T05:45:34;0.60;;;0.60;;
20369;SDS011;10344;47.592;9.600;2023-04-24T05:48:01;0.50;;;0.50;;
20369;SDS011;10344;47.592;9.600;2023-04-24T05:50:27;1.10;;;0.50;;
20369;SDS011;10344;47.592;9.600;2023-04-24T05:52:59;0.93;;;0.70;;
20369;SDS011;10344;47.592;9.600;2023-04-24T05:55:27;0.70;;;0.50;;
20369;SDS011;10344;47.592;9.600;2023-04-24T05:57:55;0.90;;;0.40;;
20369;SDS011;10344;47.592;9.600;2023-04-24T06:00:21;0.60;;;0.60;;
20369;SDS011;10344;47.592;9.600;2023-04-24T06:02:47;0.28;;;0.28;;
20369;SDS011;10344;47.592;9.600;2023-04-24T06:05:12;0.40;;;0.40;;
20369;SDS011;10344;47.592;9.600;2023-04-24T06:07:38;0.83;;;0.53;;
20369;SDS011;10344;47.592;9.600;2023-04-24T06:10:04;0.40;;;0.40;;
20369;SDS011;10344;47.592;9.600;2023-04-24T06:12:30;0.40;;;0.40;;
20369;SDS011;10344;47.592;9.600;2023-04-24T06:15:01;0.60;;;0.60;;
20369;SDS011;10344;47.592;9.600;2023-04-24T06:17:30;0.50;;;0.50;;
20369;SDS011;10344;47.592;9.600;2023-04-24T06:19:58;0.40;;;0.40;;
20369;SDS011;10344;47.592;9.600;2023-04-24T06:22:23;0.50;;;0.50;;
20369;SDS011;10344;47.592;9.600;2023-04-24T06:24:49;0.50;;;0.50;;
20369;SDS011;10344;47.592;9.600;2023-04-24T06:27:15;0.50;;;0.50;;
20369;SDS011;10344;47.592;9.600;2023-04-24T06:29:43;0.50;;;0.40;;
20369;SDS011;10344;47.592;9.600;2023-04-24T06:32:08;0.50;;;0.50;;
20369;SDS011;10344;47.592;9.600;2023-04-24T06:34:34;0.70;;;0.70;;
20369;SDS011;10344;47.592;9.600;2023-04-24T06:37:02;0.50;;;0.50;;
20369;SDS011;10344;47.592;9.600;2023-04-24T06:39:28;0.60;;;0.60;;
20369;SDS011;10344;47.592;9.600;2023-04-24T06:41:53;0.43;;;0.40;;
20369;SDS011;10344;47.592;9.600;2023-04-24T06:44:20;1.20;;;0.55;;
20369;SDS011;10344;47.592;9.600;2023-04-24T06:46:47;1.17;;;1.00;;
20369;SDS011;10344;47.592;9.600;2023-04-24T06:49:13;0.77;;;0.60;;
20369;SDS011;10344;47.592;9.600;2023-04-24T06:51:40;0.80;;;0.68;;
20369;SDS011;10344;47.592;9.600;2023-04-24T06:54:06;0.93;;;0.80;;
20369;SDS011;10344;47.592;9.600;2023-04-24T06:56:32;1.07;;;0.80;;
20369;SDS011;10344;47.592;9.600;2023-04-24T06:59:01;0.60;;;0.60;;
20369;SDS011;10344;47.592;9.600;2023-04-24T07:01:29;0.80;;;0.80;;
20369;SDS011;10344;47.592;9.600;2023-04-24T07:03:55;1.60;;;0.90;;
20369;SDS011;10344;47.592;9.600;2023-04-24T07:06:20;1.07;;;0.93;;
20369;SDS011;10344;47.592;9.600;2023-04-24T07:08:47;0.90;;;0.80;;
20369;SDS011;10344;47.592;9.600;2023-04-24T07:11:18;1.35;;;1.05;;
20369;SDS011;10344;47.592;9.600;2023-04-24T07:13:47;1.95;;;0.98;;
20369;SDS011;10344;47.592;9.600;2023-04-24T07:16:12;2.10;;;1.10;;
20369;SDS011;10344;47.592;9.600;2023-04-24T07:18:38;1.50;;;1.00;;
20369;SDS011;10344;47.592;9.600;2023-04-24T07:21:06;1.10;;;0.95;;
20369;SDS011;10344;47.592;9.600;2023-04-24T07:23:32;1.08;;;1.00;;
20369;SDS011;10344;47.592;9.600;2023-04-24T07:25:57;1.10;;;1.00;;
20369;SDS011;10344;47.592;9.600;2023-04-24T07:28:23;1.20;;;1.10;;
20369;SDS011;10344;47.592;9.600;2023-04-24T07:30:49;1.73;;;1.10;;
20369;SDS011;10344;47.592;9.600;2023-04-24T07:33:15;1.30;;;1.20;;
20369;SDS011;10344;47.592;9.600;2023-04-24T07:35:40;1.30;;;1.10;;
20369;SDS011;10344;47.592;9.600;2023-04-24T07:38:06;1.23;;;1.13;;
20369;SDS011;10344;47.592;9.600;2023-04-24T07:40:34;1.15;;;1.10;;
20369;SDS011;10344;47.592;9.600;2023-04-24T07:43:02;1.13;;;1.05;;
20369;SDS011;10344;47.592;9.600;2023-04-24T07:45:30;1.40;;;1.30;;
20369;SDS011;10344;47.592;9.600;2023-04-24T07:47:58;1.30;;;1.20;;
20369;SDS011;10344;47.592;9.600;2023-04-24T07:50:28;1.30;;;1.20;;
20369;SDS011;10344;47.592;9.600;2023-04-24T07:52:56;2.00;;;1.20;;
20369;SDS011;10344;47.592;9.600;2023-04-24T07:55:21;1.37;;;1.27;;
20369;SDS011;10344;47.592;9.600;2023-04-24T07:57:50;1.60;;;1.50;;
20369;SDS011;10344;47.592;9.600;2023-04-24T08:00:16;2.30;;;1.42;;
20369;SDS011;10344;47.592;9.600;2023-04-24T08:02:44;1.40;;;1.30;;
20369;SDS011;10344;47.592;9.600;2023-04-24T08:05:10;1.90;;;1.40;;
20369;SDS011;10344;47.592;9.600;2023-04-24T08:07:38;1.30;;;1.20;;
20369;SDS011;10344;47.592;9.600;2023-04-24T08:10:09;1.40;;;1.25;;
20369;SDS011;10344;47.592;9.600;2023-04-24T08:12:35;1.20;;;1.10;;
20369;SDS011;10344;47.592;9.600;2023-04-24T08:15:06;3.10;;;1.20;;
20369;SDS011;10344;47.592;9.600;2023-04-24T08:17:32;1.70;;;1.20;;
20369;SDS011;10344;47.592;9.600;2023-04-24T08:19:58;1.23;;;0.93;;
20369;SDS011;10344;47.592;9.600;2023-04-24T08:22:26;1.00;;;0.90;;
20369;SDS011;10344;47.592;9.600;2023-04-24T08:24:53;0.60;;;0.60;;
20369;SDS011;10344;47.592;9.600;2023-04-24T08:27:19;0.90;;;0.80;;
20369;SDS011;10344;47.592;9.600;2023-04-24T08:29:45;0.80;;;0.80;;
20369;SDS011;10344;47.592;9.600;2023-04-24T08:32:10;0.97;;;0.70;;
20369;SDS011;10344;47.592;9.600;2023-04-24T08:34:36;0.60;;;0.53;;
20369;SDS011;10344;47.592;9.600;2023-04-24T08:37:04;0.70;;;0.70;;
20369;SDS011;10344;47.592;9.600;2023-04-24T08:39:30;0.82;;;0.52;;
20369;SDS011;10344;47.592;9.600;2023-04-24T08:41:58;0.77;;;0.60;;
20369;SDS011;10344;47.592;9.600;2023-04-24T08:44:35;0.70;;;0.70;;
20369;SDS011;10344;47.592;9.600;2023-04-24T08:47:04;1.20;;;0.63;;
20369;SDS011;10344;47.592;9.600;2023-04-24T08:49:30;1.50;;;0.80;;
20369;SDS011;10344;47.592;9.600;2023-04-24T08:51:56;0.65;;;0.60;;
20369;SDS011;10344;47.592;9.600;2023-04-24T08:54:24;1.02;;;0.70;;
20369;SDS011;10344;47.592;9.600;2023-04-24T08:56:50;1.27;;;1.17;;
20369;SDS011;10344;47.592;9.600;2023-04-24T08:59:23;1.40;;;1.27;;
20369;SDS011;10344;47.592;9.600;2023-04-24T09:01:49;2.03;;;1.30;;
20369;SDS011;10344;47.592;9.600;2023-04-24T09:04:17;2.20;;;1.50;;
20369;SDS011;10344;47.592;9.600;2023-04-24T09:06:47;2.83;;;1.50;;
20369;SDS011;10344;47.592;9.600;2023-04-24T09:09:18;1.75;;;1.40;;
20369;SDS011;10344;47.592;9.600;2023-04-24T09:11:45;2.33;;;1.50;;
20369;SDS011;10344;47.592;9.600;2023-04-24T09:14:14;1.67;;;1.40;;
20369;SDS011;10344;47.592;9.600;2023-04-24T09:16:44;1.52;;;1.30;;
20369;SDS011;10344;47.592;9.600;2023-04-24T09:19:10;1.55;;;1.40;;
20369;SDS011;10344;47.592;9.600;2023-04-24T09:21:36;1.58;;;1.30;;
20369;SDS011;10344;47.592;9.600;2023-04-24T09:24:03;1.73;;;1.48;;
20369;SDS011;10344;47.592;9.600;2023-04-24T09:26:31;2.25;;;1.60;;
20369;SDS011;10344;47.592;9.600;2023-04-24T09:29:02;3.53;;;1.42;;
20369;SDS011;10344;47.592;9.600;2023-04-24T09:31:30;1.70;;;1.60;;
20369;SDS011;10344;47.592;9.600;2023-04-24T09:34:05;2.85;;;1.50;;
20369;SDS011;10344;47.592;9.600;2023-04-24T09:36:34;2.15;;;1.60;;
20369;SDS011;10344;47.592;9.600;2023-04-24T09:39:02;1.83;;;1.73;;
20369;SDS011;10344;47.592;9.600;2023-04-24T09:41:31;2.30;;;1.83;;
20369;SDS011;10344;47.592;9.600;2023-04-24T09:43:58;2.00;;;1.80;;
20369;SDS011;10344;47.592;9.600;2023-04-24T09:46:49;2.30;;;2.00;;
20369;SDS011;10344;47.592;9.600;2023-04-24T09:49:28;3.05;;;1.90;;
20369;SDS011;10344;47.592;9.600;2023-04-24T09:52:11;2.10;;;1.80;;
20369;SDS011;10344;47.592;9.600;2023-04-24T09:54:37;3.30;;;2.00;;
20369;SDS011;10344;47.592;9.600;2023-04-24T09:57:07;3.10;;;1.90;;
20369;SDS011;10344;47.592;9.600;2023-04-24T09:59:34;2.20;;;1.60;;
20369;SDS011;10344;47.592;9.600;2023-04-24T10:02:00;1.83;;;1.60;;
20369;SDS011;10344;47.592;9.600;2023-04-24T10:04:26;2.17;;;1.60;;
20369;SDS011;10344;47.592;9.600;2023-04-24T10:06:54;2.33;;;1.90;;
20369;SDS011;10344;47.592;9.600;2023-04-24T10:09:23;2.78;;;1.75;;
20369;SDS011;10344;47.592;9.600;2023-04-24T10:11:52;2.15;;;1.95;;
20369;SDS011;10344;47.592;9.600;2023-04-24T10:14:20;3.22;;;2.00;;
20369;SDS011;10344;47.592;9.600;2023-04-24T10:16:47;2.08;;;1.88;;
20369;SDS011;10344;47.592;9.600;2023-04-24T10:19:14;2.47;;;1.88;;
20369;SDS011;10344;47.592;9.600;2023-04-24T10:21:41;2.80;;;2.03;;
20369;SDS011;10344;47.592;9.600;2023-04-24T10:24:13;2.03;;;1.70;;
20369;SDS011;10344;47.592;9.600;2023-04-24T10:26:40;3.15;;;2.28;;
20369;SDS011;10344;47.592;9.600;2023-04-24T10:29:14;3.83;;;1.80;;
20369;SDS011;10344;47.592;9.600;2023-04-24T10:31:43;2.55;;;2.00;;
20369;SDS011;10344;47.592;9.600;2023-04-24T10:34:15;2.13;;;1.70;;
20369;SDS011;10344;47.592;9.600;2023-04-24T10:36:45;1.70;;;1.58;;
20369;SDS011;10344;47.592;9.600;2023-04-24T10:53:52;3.47;;;1.80;;
20369;SDS011;10344;47.592;9.600;2023-04-24T10:56:18;1.85;;;1.55;;
20369;SDS011;10344;47.592;9.600;2023-04-24T10:58:45;2.35;;;1.52;;
20369;SDS011;10344;47.592;9.600;2023-04-24T11:01:32;1.95;;;1.70;;
20369;SDS011;10344;47.592;9.600;2023-04-24T11:03:59;1.30;;;1.20;;
20369;SDS011;10344;47.592;9.600;2023-04-24T11:06:31;1.85;;;1.75;;
20369;SDS011;10344;47.592;9.600;2023-04-24T11:09:04;2.25;;;1.58;;
20369;SDS011;10344;47.592;9.600;2023-04-24T11:11:32;1.60;;;1.38;;
20369;SDS011;10344;47.592;9.600;2023-04-24T11:26:51;3.30;;;1.33;;
20369;SDS011;10344;47.592;9.600;2023-04-24T11:29:19;2.53;;;1.45;;
20369;SDS011;10344;47.592;9.600;2023-04-24T11:31:45;1.50;;;1.40;;
20369;SDS011;10344;47.592;9.600;2023-04-24T11:34:17;1.90;;;1.50;;
20369;SDS011;10344;47.592;9.600;2023-04-24T11:36:43;2.45;;;1.30;;
20369;SDS011;10344;47.592;9.600;2023-04-24T11:39:14;2.35;;;1.60;;
20369;SDS011;10344;47.592;9.600;2023-04-24T11:41:40;2.50;;;1.40;;
20369;SDS011;10344;47.592;9.600;2023-04-24T11:44:09;2.53;;;1.52;;
20369;SDS011;10344;47.592;9.600;2023-04-24T11:46:36;2.55;;;1.40;;
20369;SDS011;10344;47.592;9.600;2023-04-24T11:49:03;2.20;;;1.70;;
20369;SDS011;10344;47.592;9.600;2023-04-24T11:51:28;2.53;;;1.40;;
20369;SDS011;10344;47.592;9.600;2023-04-24T11:53:55;1.40;;;1.30;;
20369;SDS011;10344;47.592;9.600;2023-04-24T11:56:21;2.47;;;1.75;;
20369;SDS011;10344;47.592;9.600;2023-04-24T11:58:48;1.67;;;1.30;;
20369;SDS011;10344;47.592;9.600;2023-04-24T12:01:18;3.47;;;1.83;;
20369;SDS011;10344;47.592;9.600;2023-04-24T12:03:48;2.20;;;1.40;;
20369;SDS011;10344;47.592;9.600;2023-04-24T12:06:24;1.60;;;1.50;;
20369;SDS011;10344;47.592;9.600;2023-04-24T12:08:52;1.98;;;1.45;;
20369;SDS011;10344;47.592;9.600;2023-04-24T12:11:20;1.58;;;1.48;;
20369;SDS011;10344;47.592;9.600;2023-04-24T12:13:48;1.65;;;1.52;;
20369;SDS011;10344;47.592;9.600;2023-04-24T12:16:16;1.70;;;1.60;;
20369;SDS011;10344;47.592;9.600;2023-04-24T12:18:42;1.53;;;1.43;;
20369;SDS011;10344;47.592;9.600;2023-04-24T12:21:16;1.47;;;1.37;;
20369;SDS011;10344;47.592;9.600;2023-04-24T12:23:53;2.40;;;1.30;;
20369;SDS011;10344;47.592;9.600;2023-04-24T12:26:22;1.80;;;1.40;;
20369;SDS011;10344;47.592;9.600;2023-04-24T12:28:48;2.42;;;1.50;;
20369;SDS011;10344;47.592;9.600;2023-04-24T12:31:15;2.20;;;1.40;;
20369;SDS011;10344;47.592;9.600;2023-04-24T12:33:42;3.07;;;1.50;;
20369;SDS011;10344;47.592;9.600;2023-04-24T12:36:09;2.22;;;1.45;;
20369;SDS011;10344;47.592;9.600;2023-04-24T12:38:37;2.20;;;1.60;;
20369;SDS011;10344;47.592;9.600;2023-04-24T12:41:11;1.85;;;1.30;;
20369;SDS011;10344;47.592;9.600;2023-04-24T12:43:51;2.42;;;1.33;;
20369;SDS011;10344;47.592;9.600;2023-04-24T12:46:17;1.92;;;1.50;;
20369;SDS011;10344;47.592;9.600;2023-04-24T12:48:43;1.90;;;1.67;;
20369;SDS011;10344;47.592;9.600;2023-04-24T12:51:09;1.90;;;1.50;;
20369;SDS011;10344;47.592;9.600;2023-04-24T12:53:39;2.50;;;1.30;;
20369;SDS011;10344;47.592;9.600;2023-04-24T12:56:10;2.40;;;1.30;;
20369;SDS011;10344;47.592;9.600;2023-04-24T12:58:35;1.33;;;1.13;;
20369;SDS011;10344;47.592;9.600;2023-04-24T13:01:01;2.83;;;1.27;;
20369;SDS011;10344;47.592;9.600;2023-04-24T13:03:27;1.37;;;1.20;;
20369;SDS011;10344;47.592;9.600;2023-04-24T13:05:54;1.92;;;1.50;;
20369;SDS011;10344;47.592;9.600;2023-04-24T13:08:22;1.88;;;1.30;;
20369;SDS011;10344;47.592;9.600;2023-04-24T13:10:50;1.50;;;1.40;;
20369;SDS011;10344;47.592;9.600;2023-04-24T13:13:16;2.90;;;1.50;;
20369;SDS011;10344;47.592;9.600;2023-04-24T13:15:44;1.50;;;1.10;;
20369;SDS011;10344;47.592;9.600;2023-04-24T13:18:12;2.17;;;1.30;;
20369;SDS011;10344;47.592;9.600;2023-04-24T13:20:38;1.60;;;1.30;;
20369;SDS011;10344;47.592;9.600;2023-04-24T13:23:05;1.30;;;1.17;;
20369;SDS011;10344;47.592;9.600;2023-04-24T13:25:34;2.03;;;1.40;;
20369;SDS011;10344;47.592;9.600;2023-04-24T13:28:05;2.10;;;1.30;;
20369;SDS011;10344;47.592;9.600;2023-04-24T13:30:31;1.92;;;1.30;;
20369;SDS011;10344;47.592;9.600;2023-04-24T13:32:57;1.52;;;1.10;;
20369;SDS011;10344;47.592;9.600;2023-04-24T13:35:22;2.20;;;1.10;;
20369;SDS011;10344;47.592;9.600;2023-04-24T13:37:50;2.00;;;1.30;;
20369;SDS011;10344;47.592;9.600;2023-04-24T13:40:16;1.87;;;1.30;;
20369;SDS011;10344;47.592;9.600;2023-04-24T13:42:41;2.17;;;1.20;;
20369;SDS011;10344;47.592;9.600;2023-04-24T13:45:08;1.70;;;1.17;;
20369;SDS011;10344;47.592;9.600;2023-04-24T13:47:36;1.53;;;1.00;;
20369;SDS011;10344;47.592;9.600;2023-04-24T13:50:07;1.38;;;1.02;;
20369;SDS011;10344;47.592;9.600;2023-04-24T13:52:34;2.33;;;1.20;;
20369;SDS011;10344;47.592;9.600;2023-04-24T13:55:04;1.90;;;1.10;;
20369;SDS011;10344;47.592;9.600;2023-04-24T13:57:30;1.30;;;1.20;;
20369;SDS011;10344;47.592;9.600;2023-04-24T13:59:57;1.30;;;1.10;;
20369;SDS011;10344;47.592;9.600;2023-04-24T14:02:27;1.20;;;1.10;;
20369;SDS011;10344;47.592;9.600;2023-04-24T14:04:55;2.50;;;1.20;;
20369;SDS011;10344;47.592;9.600;2023-04-24T14:07:23;1.48;;;1.10;;
20369;SDS011;10344;47.592;9.600;2023-04-24T14:09:48;1.20;;;1.10;;
20369;SDS011;10344;47.592;9.600;2023-04-24T14:12:15;1.60;;;1.20;;
20369;SDS011;10344;47.592;9.600;2023-04-24T14:14:43;1.90;;;1.13;;
20369;SDS011;10344;47.592;9.600;2023-04-24T14:17:09;1.58;;;1.15;;
20369;SDS011;10344;47.592;9.600;2023-04-24T14:19:37;1.10;;;1.00;;
20369;SDS011;10344;47.592;9.600;2023-04-24T14:22:02;1.70;;;1.03;;
20369;SDS011;10344;47.592;9.600;2023-04-24T14:24:28;1.40;;;1.20;;
20369;SDS011;10344;47.592;9.600;2023-04-24T14:26:53;1.83;;;1.20;;
20369;SDS011;10344;47.592;9.600;2023-04-24T14:29:19;1.42;;;1.23;;
20369;SDS011;10344;47.592;9.600;2023-04-24T14:31:47;1.63;;;1.23;;
20369;SDS011;10344;47.592;9.600;2023-04-24T14:34:13;2.72;;;1.13;;
20369;SDS011;10344;47.592;9.600;2023-04-24T14:36:39;1.70;;;1.30;;
20369;SDS011;10344;47.592;9.600;2023-04-24T14:39:07;1.47;;;1.10;;
20369;SDS011;10344;47.592;9.600;2023-04-24T14:41:33;1.10;;;1.00;;
20369;SDS011;10344;47.592;9.600;2023-04-24T14:44:01;1.23;;;1.13;;
20369;SDS011;10344;47.592;9.600;2023-04-24T14:46:27;2.05;;;1.27;;
20369;SDS011;10344;47.592;9.600;2023-04-24T14:48:58;2.17;;;1.05;;
20369;SDS011;10344;47.592;9.600;2023-04-24T14:51:24;1.40;;;1.30;;
20369;SDS011;10344;47.592;9.600;2023-04-24T14:53:50;1.90;;;1.00;;
20369;SDS011;10344;47.592;9.600;2023-04-24T14:56:16;1.70;;;1.17;;
20369;SDS011;10344;47.592;9.600;2023-04-24T14:58:42;1.83;;;1.10;;
20369;SDS011;10344;47.592;9.600;2023-04-24T15:01:10;1.85;;;1.20;;
20369;SDS011;10344;47.592;9.600;2023-04-24T15:03:36;2.25;;;1.20;;
20369;SDS011;10344;47.592;9.600;2023-04-24T15:06:01;1.40;;;1.30;;
20369;SDS011;10344;47.592;9.600;2023-04-24T15:08:29;1.67;;;1.30;;
20369;SDS011;10344;47.592;9.600;2023-04-24T15:10:55;1.35;;;1.20;;
20369;SDS011;10344;47.592;9.600;2023-04-24T15:13:21;1.63;;;1.20;;
20369;SDS011;10344;47.592;9.600;2023-04-24T15:15:46;1.37;;;1.27;;
20369;SDS011;10344;47.592;9.600;2023-04-24T15:18:12;1.40;;;1.27;;